Time;durP1;ratioP1;P1;durP2;ratioP2;P2;SDS_P1;SDS_P2;PMS_P1;PMS_P2;Temp;Humidity;BMP_temperature;BMP_pressure;BME280_temperature;BME280_humidity;BME280_pressure;Samples;Min_cycle;Max_cycle;Signal;HPM_P1;HPM_P2
2023/12/20 00:01:03;;;;;;;1.67;0.90;;;21.50;52.60;;;;;;4997597;28;20507;-72
2023/12/20 00:03:28;;;;;;;2.08;1.00;;;21.50;52.50;;;;;;4981125;28;20030;-73
2023/12/20 00:05:55;;;;;;;1.90;1.02;;;21.40;52.50;;;;;;4981948;28;20570;-72
2023/12/20 00:08:21;;;;;;;1.92;1.10;;;21.40;52.50;;;;;;4983950;28;20525;-72
2023/12/20 00:10:46;;;;;;;1.25;0.90;;;21.40;52.50;;;;;;4984162;28;20026;-73
2023/12/20 00:13:12;;;;;;;1.45;1.00;;;21.40;52.50;;;;;;4984058;28;20066;-72
2023/12/20 00:15:38;;;;;;;1.40;1.00;;;21.40;52.60;;;;;;4981118;28;20023;-72
2023/12/20 00:18:04;;;;;;;2.58;1.08;;;21.30;52.50;;;;;;4981787;28;20504;-72
2023/12/20 00:20:29;;;;;;;2.17;1.10;;;21.30;52.60;;;;;;4981993;28;20567;-72
2023/12/20 00:23:00;;;;;;;1.77;1.10;;;21.30;52.60;;;;;;4982330;28;20034;-72
2023/12/20 00:25:26;;;;;;;1.50;0.90;;;21.30;52.60;;;;;;4981963;28;20418;-72
2023/12/20 00:27:52;;;;;;;1.23;0.90;;;21.30;52.60;;;;;;4981492;28;20035;-72
2023/12/20 00:30:18;;;;;;;1.73;1.05;;;21.30;52.60;;;;;;4980378;28;20030;-72
2023/12/20 00:32:46;;;;;;;2.00;1.13;;;21.20;52.60;;;;;;4982535;28;20027;-72
2023/12/20 00:35:15;;;;;;;1.40;0.90;;;21.20;52.70;;;;;;4979196;28;20033;-72
2023/12/20 00:37:42;;;;;;;1.95;1.15;;;21.20;52.70;;;;;;4996985;28;20041;-72
2023/12/20 00:40:08;;;;;;;1.70;1.00;;;21.20;52.70;;;;;;4981663;28;20117;-72
2023/12/20 00:42:35;;;;;;;1.90;0.98;;;21.20;52.70;;;;;;4995917;28;20038;-72
2023/12/20 00:45:01;;;;;;;1.38;1.00;;;21.10;52.70;;;;;;4980979;28;20045;-72
2023/12/20 00:47:26;;;;;;;1.58;1.00;;;21.10;52.70;;;;;;4980343;28;20030;-71
2023/12/20 00:49:52;;;;;;;2.28;1.13;;;21.10;52.80;;;;;;4980580;28;20023;-71
2023/12/20 00:52:18;;;;;;;2.15;1.00;;;21.10;52.80;;;;;;4998464;28;20027;-71
2023/12/20 00:54:44;;;;;;;1.50;1.10;;;21.00;52.80;;;;;;4981173;28;20433;-71
2023/12/20 00:57:10;;;;;;;1.55;1.00;;;21.10;52.90;;;;;;4982603;28;20110;-73
2023/12/20 00:59:35;;;;;;;1.65;1.00;;;21.00;52.90;;;;;;4995805;28;20451;-73
2023/12/20 01:02:01;;;;;;;1.70;1.08;;;21.00;52.90;;;;;;4980958;28;20092;-72
2023/12/20 01:04:26;;;;;;;1.13;0.90;;;21.00;53.00;;;;;;4980436;28;20600;-73
2023/12/20 01:06:53;;;;;;;1.38;0.90;;;21.00;53.00;;;;;;4981370;28;20101;-70
2023/12/20 01:09:18;;;;;;;1.33;0.90;;;20.90;52.90;;;;;;4995996;28;20471;-70
2023/12/20 01:11:46;;;;;;;1.23;0.85;;;20.90;53.00;;;;;;4981395;28;20032;-71
2023/12/20 01:14:12;;;;;;;1.85;1.00;;;20.90;53.00;;;;;;4979580;28;20100;-70
2023/12/20 01:16:37;;;;;;;1.83;1.02;;;20.90;53.00;;;;;;4979526;28;20959;-71
2023/12/20 01:19:03;;;;;;;1.70;1.10;;;20.90;53.00;;;;;;4981603;28;20383;-71
2023/12/20 01:21:29;;;;;;;1.20;0.90;;;20.90;53.10;;;;;;4980772;28;20041;-71
2023/12/20 01:23:54;;;;;;;2.72;1.55;;;20.90;53.10;;;;;;4978963;28;20368;-71
2023/12/20 01:26:20;;;;;;;1.88;1.00;;;20.80;53.10;;;;;;4997093;28;20026;-71
2023/12/20 01:28:46;;;;;;;1.77;1.00;;;20.80;53.10;;;;;;4982466;28;20117;-71
2023/12/20 01:31:11;;;;;;;1.40;1.00;;;20.80;53.10;;;;;;4979945;28;20084;-71
2023/12/20 01:33:37;;;;;;;1.67;0.93;;;20.80;53.10;;;;;;4981152;28;20030;-71
2023/12/20 01:36:03;;;;;;;1.63;1.00;;;20.80;53.10;;;;;;4979176;28;20030;-70
2023/12/20 01:38:29;;;;;;;1.85;1.00;;;20.80;53.20;;;;;;4996905;28;20124;-70
2023/12/20 01:40:55;;;;;;;2.13;1.15;;;20.80;53.20;;;;;;4979439;28;20073;-71
2023/12/20 01:43:20;;;;;;;1.73;0.90;;;20.70;53.20;;;;;;4995535;28;20038;-71
2023/12/20 01:45:47;;;;;;;2.75;1.00;;;20.70;53.20;;;;;;4981763;28;20172;-70
2023/12/20 01:48:14;;;;;;;1.80;0.90;;;20.70;53.20;;;;;;4981886;28;20055;-71
2023/12/20 01:50:41;;;;;;;1.63;0.90;;;20.70;53.20;;;;;;4980095;28;20030;-71
2023/12/20 01:53:08;;;;;;;1.20;0.90;;;20.70;53.20;;;;;;4980797;28;20498;-71
2023/12/20 01:55:36;;;;;;;1.48;0.90;;;20.60;53.20;;;;;;4980739;28;20479;-71
2023/12/20 01:58:03;;;;;;;1.55;1.00;;;20.70;53.30;;;;;;4994153;28;20046;-71
2023/12/20 02:00:30;;;;;;;0.98;0.88;;;20.70;53.30;;;;;;4978844;28;20491;-71
2023/12/20 02:02:56;;;;;;;1.55;0.93;;;20.70;53.30;;;;;;4977905;28;20054;-71
2023/12/20 02:05:23;;;;;;;1.75;0.93;;;20.60;53.30;;;;;;4993161;28;20515;-72
2023/12/20 02:07:50;;;;;;;1.33;1.00;;;20.60;53.30;;;;;;4980268;28;20577;-71
2023/12/20 02:10:16;;;;;;;1.35;0.93;;;20.60;53.30;;;;;;4980365;28;20049;-71
2023/12/20 02:12:41;;;;;;;1.30;0.90;;;20.60;53.30;;;;;;4976007;28;20045;-71
2023/12/20 02:15:08;;;;;;;1.30;0.98;;;20.60;53.40;;;;;;4980867;28;20030;-71
2023/12/20 02:17:34;;;;;;;1.00;0.80;;;20.60;53.40;;;;;;4979993;28;20035;-72
2023/12/20 02:19:59;;;;;;;1.33;1.00;;;20.60;53.40;;;;;;4993601;28;20374;-72
2023/12/20 02:22:25;;;;;;;1.40;1.00;;;20.50;53.40;;;;;;4976809;28;20984;-73
2023/12/20 02:24:51;;;;;;;1.27;0.90;;;20.50;53.40;;;;;;4980900;28;20030;-73
2023/12/20 02:27:19;;;;;;;1.27;0.80;;;20.50;53.40;;;;;;4979210;28;20106;-73
2023/12/20 02:29:47;;;;;;;1.00;0.80;;;20.50;53.40;;;;;;4979630;28;20468;-73
2023/12/20 02:32:12;;;;;;;0.90;0.80;;;20.50;53.40;;;;;;4978310;28;20110;-73
2023/12/20 02:34:38;;;;;;;1.35;0.95;;;20.50;53.50;;;;;;4978145;28;20462;-72
2023/12/20 02:37:04;;;;;;;1.13;0.85;;;20.50;53.50;;;;;;4979704;28;20026;-72
2023/12/20 02:39:30;;;;;;;2.03;1.00;;;20.50;53.50;;;;;;4997908;28;20046;-72
2023/12/20 02:41:56;;;;;;;1.40;0.90;;;20.40;53.40;;;;;;4980786;28;20109;-72
2023/12/20 02:44:21;;;;;;;1.52;0.80;;;20.40;53.50;;;;;;4978070;28;20530;-72
2023/12/20 02:46:47;;;;;;;1.55;0.93;;;20.40;53.50;;;;;;4978372;28;20074;-73
2023/12/20 02:49:12;;;;;;;1.15;0.82;;;20.40;53.50;;;;;;4978724;28;20026;-72
2023/12/20 02:51:38;;;;;;;1.30;0.90;;;20.40;53.60;;;;;;4979039;28;20476;-72
2023/12/20 02:54:04;;;;;;;1.42;0.93;;;20.40;53.60;;;;;;4993431;28;20054;-72
2023/12/20 02:56:30;;;;;;;1.23;0.80;;;20.40;53.60;;;;;;4977086;28;20446;-72
2023/12/20 02:58:55;;;;;;;1.27;0.90;;;20.40;53.60;;;;;;4981684;28;20039;-72
2023/12/20 03:01:21;;;;;;;1.10;0.80;;;20.30;53.60;;;;;;4995623;28;20494;-72
2023/12/20 03:03:46;;;;;;;1.40;0.80;;;20.30;53.70;;;;;;4978230;28;20034;-72
2023/12/20 03:06:19;;;;;;;1.60;0.93;;;20.30;53.60;;;;;;4981043;28;20047;-72
2023/12/20 03:08:45;;;;;;;1.15;0.90;;;20.30;53.70;;;;;;4993737;28;20026;-71
2023/12/20 03:11:10;;;;;;;1.13;0.80;;;20.30;53.70;;;;;;4978864;28;20545;-71
2023/12/20 03:13:36;;;;;;;1.05;0.90;;;20.30;53.70;;;;;;4979249;28;20106;-71
2023/12/20 03:16:09;;;;;;;1.08;0.85;;;20.30;53.70;;;;;;4979150;28;20034;-71
2023/12/20 03:18:34;;;;;;;1.60;0.90;;;20.30;53.70;;;;;;4978234;28;20054;-73
2023/12/20 03:21:00;;;;;;;1.02;0.80;;;20.20;53.70;;;;;;4976823;28;20062;-72
2023/12/20 03:23:27;;;;;;;1.15;0.90;;;20.30;53.80;;;;;;4981666;28;20041;-72
2023/12/20 03:25:52;;;;;;;0.98;0.70;;;20.20;53.70;;;;;;4984604;28;20502;-72
2023/12/20 03:28:19;;;;;;;1.25;0.90;;;20.20;53.80;;;;;;4999052;28;20054;-70
2023/12/20 03:30:44;;;;;;;0.93;0.70;;;20.20;53.80;;;;;;4998165;28;20106;-70
2023/12/20 03:33:10;;;;;;;1.27;0.75;;;20.30;53.90;;;;;;4980767;28;20134;-68
2023/12/20 03:35:36;;;;;;;1.20;0.70;;;20.20;53.80;;;;;;4982613;28;20465;-68
2023/12/20 03:38:01;;;;;;;0.80;0.80;;;20.20;53.80;;;;;;4983505;28;20046;-68
2023/12/20 03:40:27;;;;;;;1.00;0.70;;;20.20;53.90;;;;;;4983922;28;20057;-67
2023/12/20 03:42:53;;;;;;;1.25;0.82;;;20.20;53.90;;;;;;4985349;28;20041;-68
2023/12/20 03:45:18;;;;;;;1.75;0.85;;;20.20;53.90;;;;;;4998214;28;20030;-68
2023/12/20 03:47:44;;;;;;;1.48;1.05;;;20.20;54.00;;;;;;4995624;28;20601;-68
2023/12/20 03:50:09;;;;;;;0.88;0.75;;;20.20;54.00;;;;;;4982430;28;20023;-68
2023/12/20 03:52:35;;;;;;;0.98;0.70;;;20.20;54.00;;;;;;4982801;28;20489;-68
2023/12/20 03:55:00;;;;;;;1.05;0.90;;;20.10;54.00;;;;;;4983986;28;20033;-68
2023/12/20 03:57:26;;;;;;;1.10;0.80;;;20.10;54.50;;;;;;4984812;28;20085;-69
2023/12/20 03:59:52;;;;;;;1.13;0.80;;;20.10;54.00;;;;;;4997990;28;20114;-68
2023/12/20 04:02:17;;;;;;;0.95;0.80;;;20.10;54.00;;;;;;4980875;28;20446;-67
2023/12/20 04:04:43;;;;;;;1.42;0.70;;;20.10;54.00;;;;;;4999836;28;20050;-67
2023/12/20 04:07:09;;;;;;;1.45;0.80;;;20.10;54.00;;;;;;4983069;28;20378;-68
2023/12/20 04:09:34;;;;;;;1.77;1.00;;;20.10;54.10;;;;;;4981839;28;20030;-67
2023/12/20 04:12:00;;;;;;;1.35;0.80;;;20.10;54.10;;;;;;4981357;28;20027;-68
2023/12/20 04:14:29;;;;;;;1.10;0.80;;;20.10;54.10;;;;;;4981154;28;20137;-68
2023/12/20 04:16:54;;;;;;;0.93;0.70;;;20.10;54.10;;;;;;4981769;28;20027;-71
2023/12/20 04:19:20;;;;;;;1.05;0.80;;;20.10;54.10;;;;;;4983223;28;20495;-71
2023/12/20 04:21:46;;;;;;;1.20;0.77;;;20.00;54.10;;;;;;4981834;28;20089;-71
2023/12/20 04:24:11;;;;;;;0.90;0.65;;;20.10;54.10;;;;;;4980154;28;20532;-71
2023/12/20 04:26:37;;;;;;;0.95;0.70;;;20.00;54.10;;;;;;4980750;28;20034;-71
2023/12/20 04:29:02;;;;;;;0.88;0.70;;;20.00;54.10;;;;;;4982381;28;20542;-72
2023/12/20 04:31:28;;;;;;;1.08;0.77;;;20.00;54.20;;;;;;4981667;28;20029;-72
2023/12/20 04:33:53;;;;;;;1.15;0.70;;;20.00;54.20;;;;;;4993625;28;20071;-72
2023/12/20 04:36:19;;;;;;;1.00;0.70;;;20.00;54.20;;;;;;4997310;28;20030;-73
2023/12/20 04:38:45;;;;;;;0.93;0.80;;;20.00;54.20;;;;;;4981361;28;20022;-72
2023/12/20 04:41:10;;;;;;;1.13;0.70;;;20.00;54.20;;;;;;4982689;28;20108;-73
2023/12/20 04:43:36;;;;;;;0.93;0.70;;;20.00;54.30;;;;;;4982664;28;20041;-71
2023/12/20 04:46:01;;;;;;;0.80;0.70;;;20.00;54.30;;;;;;4997942;28;20030;-71
2023/12/20 04:48:27;;;;;;;0.95;0.80;;;20.00;54.30;;;;;;4980170;28;20033;-71
2023/12/20 04:50:53;;;;;;;0.77;0.73;;;19.90;54.30;;;;;;4982464;28;20027;-71
2023/12/20 04:53:19;;;;;;;0.88;0.60;;;19.90;54.30;;;;;;4982720;28;20037;-71
2023/12/20 04:55:44;;;;;;;1.77;0.68;;;19.90;54.40;;;;;;4996405;28;20023;-71
2023/12/20 04:58:10;;;;;;;1.20;0.75;;;19.90;54.40;;;;;;4996364;28;20062;-71
2023/12/20 05:00:35;;;;;;;1.55;0.80;;;19.90;54.50;;;;;;4982182;28;20030;-71
2023/12/20 05:03:01;;;;;;;1.67;0.90;;;19.90;54.60;;;;;;4981816;28;20162;-71
2023/12/20 05:05:27;;;;;;;1.30;0.80;;;19.90;54.70;;;;;;4981123;28;20490;-72
2023/12/20 05:07:52;;;;;;;2.03;0.75;;;19.90;54.70;;;;;;4979937;28;20035;-71
2023/12/20 05:10:18;;;;;;;1.65;0.90;;;19.80;54.70;;;;;;4980254;28;20030;-71
2023/12/20 05:12:43;;;;;;;1.90;0.80;;;19.80;54.80;;;;;;4979796;28;20033;-70
2023/12/20 05:15:09;;;;;;;1.38;1.00;;;19.80;54.70;;;;;;4981503;28;20041;-71
2023/12/20 05:17:35;;;;;;;1.80;0.80;;;19.80;54.80;;;;;;4998230;28;20026;-71
2023/12/20 05:20:00;;;;;;;1.60;0.85;;;19.80;54.70;;;;;;4982034;28;20910;-71
2023/12/20 05:22:27;;;;;;;1.17;0.80;;;19.80;54.80;;;;;;4980994;28;20023;-70
2023/12/20 05:24:53;;;;;;;1.40;0.90;;;19.80;54.80;;;;;;4996229;28;20082;-71
2023/12/20 05:27:18;;;;;;;1.27;0.90;;;19.80;55.30;;;;;;4981485;28;20097;-68
2023/12/20 05:29:44;;;;;;;1.35;0.70;;;19.80;54.90;;;;;;4981242;28;20158;-68
2023/12/20 05:32:10;;;;;;;1.40;0.80;;;19.80;54.90;;;;;;4994884;28;20499;-68
2023/12/20 05:34:36;;;;;;;1.65;0.93;;;19.80;54.90;;;;;;4980207;28;20096;-68
2023/12/20 05:37:02;;;;;;;1.38;0.80;;;19.80;55.00;;;;;;4983447;28;20030;-68
2023/12/20 05:39:28;;;;;;;1.52;0.90;;;19.80;55.00;;;;;;4982725;28;20030;-68
2023/12/20 05:41:53;;;;;;;0.90;0.75;;;19.70;54.90;;;;;;4979407;28;20101;-68
2023/12/20 05:44:19;;;;;;;2.55;0.90;;;19.80;55.00;;;;;;4980966;28;20065;-69
2023/12/20 05:46:44;;;;;;;2.63;0.93;;;19.80;55.00;;;;;;4980832;28;20026;-69
2023/12/20 05:49:10;;;;;;;1.88;0.80;;;19.70;55.00;;;;;;4979264;28;20055;-69
2023/12/20 05:51:36;;;;;;;1.70;0.75;;;19.80;55.10;;;;;;4982511;28;20114;-68
2023/12/20 05:54:02;;;;;;;2.38;1.00;;;19.70;55.10;;;;;;4980742;28;20514;-69
2023/12/20 05:56:27;;;;;;;1.88;0.90;;;19.70;55.10;;;;;;4979300;28;20499;-68
2023/12/20 05:58:53;;;;;;;1.23;0.77;;;19.70;55.10;;;;;;4980227;28;20038;-69
2023/12/20 06:01:18;;;;;;;1.70;0.85;;;19.80;55.20;;;;;;4980189;28;20379;-68
2023/12/20 06:03:45;;;;;;;1.75;1.00;;;19.70;55.20;;;;;;4979886;28;20401;-68
2023/12/20 06:06:12;;;;;;;1.33;0.80;;;19.70;55.20;;;;;;4976496;28;20019;-69
2023/12/20 06:08:38;;;;;;;1.23;0.70;;;19.70;55.20;;;;;;4981165;28;20137;-68
2023/12/20 06:11:05;;;;;;;1.15;0.70;;;19.70;55.20;;;;;;4978613;28;20030;-69
2023/12/20 06:13:31;;;;;;;1.58;0.80;;;19.70;55.20;;;;;;4980346;28;20487;-69
2023/12/20 06:15:57;;;;;;;2.00;0.90;;;19.70;55.30;;;;;;4978997;28;20019;-69
2023/12/20 06:18:23;;;;;;;1.42;0.77;;;19.70;55.30;;;;;;4979167;28;20042;-69
2023/12/20 06:20:48;;;;;;;1.95;1.00;;;19.70;55.30;;;;;;4979463;28;20550;-69
2023/12/20 06:23:14;;;;;;;1.88;1.10;;;19.70;55.30;;;;;;4981591;28;20105;-69
2023/12/20 06:25:40;;;;;;;1.42;0.85;;;19.70;55.30;;;;;;4980214;28;20031;-69
2023/12/20 06:28:06;;;;;;;1.75;0.80;;;19.70;55.30;;;;;;4977848;28;20030;-69
2023/12/20 06:30:32;;;;;;;1.65;0.77;;;19.70;55.30;;;;;;4983820;28;20068;-68
2023/12/20 06:32:58;;;;;;;1.05;0.70;;;19.70;55.30;;;;;;4982850;28;20098;-68
2023/12/20 06:35:24;;;;;;;1.08;0.75;;;19.70;55.30;;;;;;4976297;28;20111;-69
2023/12/20 06:37:49;;;;;;;1.48;0.90;;;19.70;55.30;;;;;;4980581;28;20038;-69
2023/12/20 06:40:15;;;;;;;2.00;0.90;;;19.70;55.30;;;;;;4981334;28;20031;-69
2023/12/20 06:42:41;;;;;;;1.40;0.80;;;19.70;55.40;;;;;;4978982;28;20053;-69
2023/12/20 06:45:07;;;;;;;1.73;0.90;;;19.70;55.40;;;;;;4978391;28;20062;-69
2023/12/20 06:47:33;;;;;;;1.33;0.85;;;19.70;55.30;;;;;;4994291;28;20508;-70
2023/12/20 06:49:59;;;;;;;0.95;0.70;;;19.70;55.40;;;;;;4981632;28;20041;-70
2023/12/20 06:52:24;;;;;;;1.05;0.75;;;19.70;55.40;;;;;;4980099;28;20126;-70
2023/12/20 06:54:50;;;;;;;1.50;0.80;;;19.60;55.30;;;;;;4994803;28;20030;-70
2023/12/20 06:57:16;;;;;;;1.50;0.80;;;19.70;55.40;;;;;;4978632;28;20459;-70
2023/12/20 06:59:42;;;;;;;2.00;0.80;;;19.60;55.40;;;;;;4981729;28;20030;-69
2023/12/20 07:02:09;;;;;;;1.42;0.80;;;19.70;56.60;;;;;;4993064;28;20080;-69
2023/12/20 07:04:38;;;;;;;1.25;0.80;;;19.80;56.60;;;;;;4979049;28;20083;-69
2023/12/20 07:07:04;;;;;;;2.28;0.80;;;20.00;56.80;;;;;;4980023;28;20036;-69
2023/12/20 07:09:29;;;;;;;1.75;0.82;;;20.10;56.50;;;;;;4993866;28;20038;-69
2023/12/20 07:11:55;;;;;;;1.05;0.80;;;20.30;56.30;;;;;;4978191;28;20064;-70
2023/12/20 07:14:21;;;;;;;2.08;1.15;;;20.40;55.80;;;;;;4979506;28;20066;-69
2023/12/20 07:16:47;;;;;;;1.25;1.00;;;20.50;55.30;;;;;;4976505;28;20439;-70
2023/12/20 07:19:13;;;;;;;2.10;0.90;;;20.70;55.00;;;;;;4980264;28;20062;-69
2023/12/20 07:21:38;;;;;;;1.55;1.00;;;20.80;54.70;;;;;;4995651;28;20026;-69
2023/12/20 07:24:04;;;;;;;1.65;0.90;;;21.00;54.40;;;;;;4981083;28;20085;-70
2023/12/20 07:26:29;;;;;;;1.40;0.80;;;21.10;54.20;;;;;;4995324;28;20037;-70
2023/12/20 07:28:55;;;;;;;2.00;0.80;;;21.20;54.00;;;;;;4978348;28;20077;-69
2023/12/20 07:31:21;;;;;;;1.45;0.73;;;21.30;53.80;;;;;;4993772;28;20033;-69
2023/12/20 07:33:46;;;;;;;1.52;0.90;;;21.40;53.50;;;;;;4979577;28;20129;-69
2023/12/20 07:36:12;;;;;;;1.50;0.80;;;21.40;53.30;;;;;;4994208;28;20142;-69
2023/12/20 07:38:38;;;;;;;1.45;0.85;;;21.50;53.20;;;;;;4978366;28;20038;-69
2023/12/20 07:41:04;;;;;;;1.50;0.70;;;21.60;53.20;;;;;;4977104;28;20034;-69
2023/12/20 07:43:30;;;;;;;1.42;1.00;;;21.70;53.00;;;;;;4978068;28;20578;-69
2023/12/20 07:45:56;;;;;;;2.20;0.90;;;21.80;52.70;;;;;;4980004;28;20059;-69
2023/12/20 07:48:21;;;;;;;1.85;0.93;;;21.90;52.30;;;;;;4977870;28;20031;-70
2023/12/20 07:50:47;;;;;;;1.35;0.90;;;22.00;52.10;;;;;;4993329;28;20435;-69
2023/12/20 07:53:12;;;;;;;0.93;0.70;;;22.10;52.00;;;;;;4994487;28;20050;-69
2023/12/20 07:55:39;;;;;;;2.00;1.00;;;22.20;51.80;;;;;;4977946;28;20038;-69
2023/12/20 07:58:05;;;;;;;1.30;0.80;;;22.30;51.50;;;;;;4980133;28;20046;-68
2023/12/20 08:00:30;;;;;;;1.23;0.80;;;22.40;51.60;;;;;;4979376;28;20506;-68
2023/12/20 08:02:56;;;;;;;2.25;1.02;;;22.40;51.30;;;;;;4993513;28;20026;-69
2023/12/20 08:05:21;;;;;;;0.77;0.70;;;22.60;51.00;;;;;;4977813;28;20530;-69
2023/12/20 08:07:47;;;;;;;1.77;1.00;;;22.70;50.90;;;;;;4978680;28;20023;-67
2023/12/20 08:10:13;;;;;;;1.48;0.90;;;22.70;50.90;;;;;;4980334;28;20015;-66
2023/12/20 08:12:39;;;;;;;1.48;0.95;;;22.80;50.50;;;;;;4981748;28;20038;-69
2023/12/20 08:15:05;;;;;;;2.08;1.00;;;22.80;50.30;;;;;;4998261;28;20138;-66
2023/12/20 08:17:31;;;;;;;1.63;0.85;;;22.80;50.20;;;;;;4983013;28;20054;-67
2023/12/20 08:19:57;;;;;;;2.13;1.20;;;22.80;50.00;;;;;;4982807;28;20057;-66
2023/12/20 08:22:22;;;;;;;1.88;1.20;;;22.90;50.10;;;;;;4984086;28;20035;-67
2023/12/20 08:24:48;;;;;;;1.38;0.90;;;23.00;50.00;;;;;;4983175;28;20041;-66
2023/12/20 08:27:13;;;;;;;2.20;0.90;;;23.00;50.00;;;;;;4982892;28;20490;-67
2023/12/20 08:29:39;;;;;;;1.70;0.90;;;23.00;49.80;;;;;;4982055;28;20084;-67
2023/12/20 08:32:05;;;;;;;1.02;0.80;;;23.10;49.80;;;;;;4982877;28;20022;-67
2023/12/20 08:34:31;;;;;;;0.77;0.60;;;23.10;49.90;;;;;;4980234;28;20027;-67
2023/12/20 08:36:56;;;;;;;1.20;0.90;;;23.10;50.00;;;;;;4984155;28;20026;-67
2023/12/20 08:39:22;;;;;;;1.67;0.80;;;23.00;49.90;;;;;;4983033;28;20169;-67
2023/12/20 08:41:48;;;;;;;2.13;0.95;;;23.00;50.00;;;;;;4998758;28;20050;-67
2023/12/20 08:44:14;;;;;;;1.75;0.73;;;23.00;50.00;;;;;;4981378;28;20030;-66
2023/12/20 08:46:39;;;;;;;1.17;0.70;;;23.00;50.10;;;;;;4982188;28;20485;-66
2023/12/20 08:49:05;;;;;;;1.70;0.80;;;22.90;50.20;;;;;;4983842;28;20030;-66
2023/12/20 08:51:30;;;;;;;3.17;0.90;;;22.90;50.10;;;;;;4981671;28;20119;-66
2023/12/20 08:53:56;;;;;;;1.42;0.88;;;22.90;50.50;;;;;;4998900;28;20240;-67
2023/12/20 08:56:22;;;;;;;0.93;0.70;;;22.90;50.30;;;;;;4984468;28;20547;-67
2023/12/20 08:58:48;;;;;;;0.82;0.60;;;22.90;50.10;;;;;;4981370;28;20038;-68
2023/12/20 09:01:14;;;;;;;0.95;0.70;;;22.90;50.10;;;;;;4981650;28;20391;-68
2023/12/20 09:03:40;;;;;;;0.93;0.80;;;22.90;50.10;;;;;;4980562;28;20030;-68
2023/12/20 09:06:06;;;;;;;0.90;0.77;;;22.90;50.10;;;;;;4980609;28;20113;-68
2023/12/20 09:08:32;;;;;;;1.15;0.80;;;22.80;50.00;;;;;;4981929;28;20174;-70
2023/12/20 09:10:58;;;;;;;1.73;0.60;;;22.80;50.00;;;;;;4983917;28;20044;-70
2023/12/20 09:13:31;;;;;;;1.23;0.80;;;22.80;50.00;;;;;;4982599;28;20014;-70
2023/12/20 09:15:57;;;;;;;0.82;0.70;;;22.80;50.10;;;;;;4983203;28;20027;-70
2023/12/20 09:18:22;;;;;;;1.25;0.80;;;22.80;50.10;;;;;;4981949;28;20399;-70
2023/12/20 09:20:48;;;;;;;1.40;0.80;;;22.80;50.10;;;;;;4981378;28;20263;-70
2023/12/20 09:23:14;;;;;;;1.23;0.80;;;22.80;50.10;;;;;;4980672;28;20045;-70
2023/12/20 09:25:39;;;;;;;1.10;0.70;;;22.80;50.20;;;;;;4992039;28;20486;-69
2023/12/20 09:28:05;;;;;;;0.95;0.70;;;22.80;50.30;;;;;;4998049;28;20573;-70
2023/12/20 09:30:33;;;;;;;1.00;0.73;;;22.80;50.60;;;;;;4980820;28;20031;-70
2023/12/20 09:32:59;;;;;;;1.50;0.88;;;22.80;50.60;;;;;;4981040;28;20422;-70
2023/12/20 09:35:25;;;;;;;1.17;0.90;;;22.90;50.10;;;;;;4979989;28;20038;-70
2023/12/20 09:37:51;;;;;;;1.92;0.80;;;23.10;50.10;;;;;;4979544;28;20504;-70
2023/12/20 09:40:19;;;;;;;2.25;0.85;;;23.20;49.80;;;;;;4983446;28;20095;-69
2023/12/20 09:42:54;;;;;;;0.90;0.80;;;23.30;49.80;;;;;;4981194;28;20034;-69
2023/12/20 09:45:21;;;;;;;1.58;0.80;;;23.30;49.50;;;;;;4981070;28;20387;-70
2023/12/20 09:47:48;;;;;;;1.58;0.82;;;23.40;49.50;;;;;;4979879;28;20328;-69
2023/12/20 09:50:14;;;;;;;1.67;0.80;;;23.50;49.50;;;;;;4980304;28;20548;-69
2023/12/20 09:52:43;;;;;;;0.93;0.70;;;23.50;49.50;;;;;;4978545;28;20030;-70
2023/12/20 09:55:09;;;;;;;1.50;0.90;;;23.60;49.50;;;;;;4981323;28;20056;-69
2023/12/20 09:57:35;;;;;;;1.30;0.90;;;23.60;49.20;;;;;;4982112;28;20699;-69
2023/12/20 10:00:01;;;;;;;1.67;0.73;;;23.70;49.00;;;;;;4995680;28;20027;-69
2023/12/20 10:02:27;;;;;;;1.52;0.73;;;23.60;49.50;;;;;;4980000;28;20507;-69
2023/12/20 10:04:54;;;;;;;1.15;0.73;;;23.60;48.90;;;;;;4994809;28;20038;-70
2023/12/20 10:07:20;;;;;;;0.80;0.70;;;23.60;48.90;;;;;;4978515;28;20042;-69
2023/12/20 10:09:47;;;;;;;1.10;0.80;;;23.60;49.10;;;;;;4981597;28;20045;-69
2023/12/20 10:12:13;;;;;;;1.30;0.80;;;23.50;49.20;;;;;;4981362;28;20038;-68
2023/12/20 10:14:39;;;;;;;1.00;0.70;;;23.50;49.20;;;;;;4979176;28;20027;-68
2023/12/20 10:17:05;;;;;;;1.25;0.75;;;23.50;49.50;;;;;;4981564;28;20422;-69
2023/12/20 10:19:32;;;;;;;1.02;0.77;;;23.50;49.40;;;;;;4982014;28;20037;-69
2023/12/20 10:22:00;;;;;;;0.82;0.70;;;23.40;49.30;;;;;;4995653;28;20118;-69
2023/12/20 10:24:29;;;;;;;1.30;0.70;;;23.40;49.30;;;;;;4994748;28;20061;-68
2023/12/20 10:27:08;;;;;;;0.90;0.77;;;23.30;49.30;;;;;;4994546;28;20422;-70
2023/12/20 10:29:38;;;;;;;1.38;0.75;;;23.30;49.30;;;;;;4980489;28;20418;-71
2023/12/20 10:32:24;;;;;;;1.58;0.88;;;23.30;49.40;;;;;;4977184;28;20339;-70
2023/12/20 10:34:50;;;;;;;1.15;0.70;;;23.30;49.40;;;;;;4980523;28;20027;-70
2023/12/20 10:37:16;;;;;;;0.98;0.80;;;23.20;49.40;;;;;;4979361;28;20034;-70
2023/12/20 10:39:42;;;;;;;0.73;0.65;;;23.20;49.50;;;;;;4978310;28;20031;-71
2023/12/20 10:42:11;;;;;;;0.93;0.80;;;23.20;49.60;;;;;;4979208;28;20042;-71
2023/12/20 10:44:36;;;;;;;1.33;0.70;;;23.20;49.70;;;;;;4978996;28;20022;-71
2023/12/20 10:47:04;;;;;;;1.13;0.80;;;23.10;49.70;;;;;;4979607;28;20811;-71
2023/12/20 10:49:31;;;;;;;1.08;0.73;;;23.10;49.80;;;;;;4980069;28;20038;-71
2023/12/20 10:52:02;;;;;;;0.82;0.70;;;23.10;49.80;;;;;;4979295;28;20026;-71
2023/12/20 10:54:28;;;;;;;2.75;0.90;;;23.10;49.70;;;;;;4980181;28;20041;-71
2023/12/20 10:56:54;;;;;;;1.42;0.80;;;23.00;49.70;;;;;;4980100;28;20475;-71
2023/12/20 10:59:21;;;;;;;1.98;1.10;;;23.00;49.80;;;;;;4979037;28;20035;-71
2023/12/20 11:01:49;;;;;;;2.20;1.30;;;23.00;49.80;;;;;;4980073;28;20027;-71
2023/12/20 11:04:22;;;;;;;2.60;1.60;;;23.00;49.80;;;;;;4979993;28;20035;-71
2023/12/20 11:07:27;;;;;;;2.55;1.45;;;23.00;49.90;;;;;;4978099;28;20114;-71
2023/12/20 11:10:15;;;;;;;2.40;1.40;;;22.90;49.90;;;;;;4994903;28;20066;-70
2023/12/20 11:12:57;;;;;;;3.10;1.80;;;22.90;50.00;;;;;;4979413;28;20034;-70
2023/12/20 11:15:24;;;;;;;3.38;1.67;;;22.90;50.00;;;;;;4980320;28;20494;-71
2023/12/20 11:17:58;;;;;;;3.30;1.80;;;22.90;50.00;;;;;;4979056;28;20031;-69
2023/12/20 11:20:34;;;;;;;3.13;1.67;;;22.80;50.00;;;;;;4979475;28;20439;-70
2023/12/20 11:23:00;;;;;;;2.53;1.52;;;22.80;50.00;;;;;;4994464;28;20071;-69
2023/12/20 11:25:27;;;;;;;3.15;1.65;;;22.80;50.00;;;;;;4978841;28;20041;-69
2023/12/20 11:28:11;;;;;;;3.03;1.48;;;22.80;50.10;;;;;;4978405;28;20092;-71
2023/12/20 11:30:47;;;;;;;3.42;1.67;;;22.80;50.10;;;;;;4979187;28;20023;-71
2023/12/20 11:33:14;;;;;;;2.83;1.75;;;22.80;50.20;;;;;;4979712;28;20023;-70
2023/12/20 11:35:41;;;;;;;2.90;1.55;;;22.70;50.20;;;;;;4979470;28;20027;-70
2023/12/20 11:38:10;;;;;;;3.25;1.80;;;22.70;50.30;;;;;;4977858;28;20495;-69
2023/12/20 11:40:37;;;;;;;3.05;1.67;;;22.70;50.40;;;;;;4977241;28;20037;-68
2023/12/20 11:43:04;;;;;;;2.90;1.77;;;22.70;50.40;;;;;;4993784;28;20065;-68
2023/12/20 11:45:30;;;;;;;3.65;1.88;;;22.70;50.40;;;;;;4982011;28;20031;-69
2023/12/20 11:47:57;;;;;;;2.63;1.42;;;22.60;50.40;;;;;;4984313;28;20022;-68
2023/12/20 11:50:23;;;;;;;3.40;2.00;;;22.60;50.50;;;;;;4983409;28;20037;-69
2023/12/20 11:52:51;;;;;;;2.95;1.70;;;22.60;50.50;;;;;;4983045;28;20026;-69
2023/12/20 11:55:17;;;;;;;3.53;1.80;;;22.60;50.50;;;;;;4996868;28;20368;-68
2023/12/20 11:57:46;;;;;;;3.25;1.70;;;22.60;50.60;;;;;;4983534;28;20034;-69
2023/12/20 12:00:14;;;;;;;2.85;1.70;;;22.60;50.60;;;;;;4980833;28;20502;-69
2023/12/20 12:02:39;;;;;;;3.45;1.80;;;22.60;50.60;;;;;;4984534;28;20039;-69
2023/12/20 12:05:06;;;;;;;3.20;1.70;;;22.60;50.70;;;;;;4982729;28;20371;-69
2023/12/20 12:07:32;;;;;;;3.88;1.70;;;22.50;50.70;;;;;;4983163;28;20359;-69
2023/12/20 12:09:58;;;;;;;4.03;1.80;;;22.50;50.80;;;;;;4979159;28;20598;-68
2023/12/20 12:12:25;;;;;;;2.53;1.50;;;22.50;50.80;;;;;;4983681;28;20471;-69
2023/12/20 12:14:51;;;;;;;3.33;1.77;;;22.50;50.80;;;;;;4980466;28;20022;-68
2023/12/20 12:17:16;;;;;;;2.95;1.75;;;22.50;50.80;;;;;;4979687;28;20030;-69
2023/12/20 12:19:43;;;;;;;2.60;1.55;;;22.50;50.80;;;;;;4997497;28;20038;-68
2023/12/20 12:22:16;;;;;;;2.92;1.60;;;22.50;50.90;;;;;;4981203;28;20033;-69
2023/12/20 12:24:45;;;;;;;3.58;2.13;;;22.50;50.90;;;;;;4982661;28;20409;-68
2023/12/20 12:27:12;;;;;;;3.15;1.55;;;22.50;50.90;;;;;;4981725;28;20026;-68
2023/12/20 12:29:39;;;;;;;2.80;1.52;;;22.50;51.00;;;;;;4982169;28;20149;-68
2023/12/20 12:32:08;;;;;;;3.15;1.80;;;22.40;50.90;;;;;;4981182;28;20086;-69
2023/12/20 12:34:37;;;;;;;3.35;1.80;;;22.50;51.00;;;;;;4980224;28;20114;-69
2023/12/20 12:37:06;;;;;;;3.13;1.55;;;22.50;51.10;;;;;;4982269;28;20149;-68
2023/12/20 12:39:32;;;;;;;2.47;1.67;;;22.40;51.10;;;;;;4990514;28;20101;-65
2023/12/20 12:41:58;;;;;;;2.88;1.67;;;22.40;51.20;;;;;;5000423;28;20034;-66
2023/12/20 12:44:24;;;;;;;2.80;1.50;;;22.40;51.20;;;;;;4980563;28;20533;-66